Time;durP1;ratioP1;P1;durP2;ratioP2;P2;SDS_P1;SDS_P2;PMS_P1;PMS_P2;Temp;Humidity;BMP_temperature;BMP_pressure;BME280_temperature;BME280_humidity;BME280_pressure;Samples;Min_cycle;Max_cycle;Signal;HPM_P1;HPM_P2
2022/10/26 00:02:03;;;;;;;17.70;4.43;;;19.00;79.00;;;;;;7386376;19;20082;-81
2022/10/26 00:04:31;;;;;;;18.00;4.60;;;19.10;78.30;;;;;;7367077;19;20052;-81
2022/10/26 00:07:00;;;;;;;13.35;4.25;;;19.10;78.30;;;;;;7370254;19;20014;-80
2022/10/26 00:09:29;;;;;;;13.05;4.70;;;19.10;78.30;;;;;;7367432;19;20100;-80
2022/10/26 00:12:00;;;;;;;12.48;4.63;;;19.10;78.30;;;;;;7369686;19;20097;-80
2022/10/26 00:14:29;;;;;;;17.42;4.50;;;19.10;78.10;;;;;;7376926;19;20026;-80
2022/10/26 00:16:58;;;;;;;16.67;4.75;;;19.10;78.00;;;;;;7391308;19;20015;-81
2022/10/26 00:19:27;;;;;;;12.32;4.38;;;19.20;78.10;;;;;;7368250;19;20082;-80
2022/10/26 00:21:55;;;;;;;15.02;4.32;;;19.10;77.90;;;;;;7369593;19;20342;-80
2022/10/26 00:24:24;;;;;;;12.55;4.32;;;19.20;78.00;;;;;;7372497;19;20020;-80
2022/10/26 00:26:53;;;;;;;14.75;4.30;;;19.10;78.00;;;;;;7370216;19;20469;-81
2022/10/26 00:29:24;;;;;;;16.67;4.40;;;19.10;78.00;;;;;;7390772;19;20021;-81
2022/10/26 00:31:53;;;;;;;10.40;4.30;;;19.10;78.20;;;;;;7370463;19;20007;-81
2022/10/26 00:34:21;;;;;;;9.93;4.18;;;19.10;78.30;;;;;;7371968;19;20014;-81
2022/10/26 00:36:50;;;;;;;15.50;4.43;;;19.10;78.30;;;;;;7377720;19;20021;-81
2022/10/26 00:39:19;;;;;;;13.15;4.28;;;19.20;78.30;;;;;;7389981;19;20128;-81
2022/10/26 00:41:47;;;;;;;12.55;4.20;;;19.20;78.30;;;;;;7382421;19;20082;-80
2022/10/26 00:44:46;;;;;;;12.18;4.18;;;19.20;78.30;;;;;;7401008;19;20025;-82
2022/10/26 00:47:23;;;;;;;11.80;4.05;;;19.20;78.60;;;;;;7376541;19;20078;-82
2022/10/26 00:49:54;;;;;;;6.57;3.45;;;19.20;78.40;;;;;;7378818;19;20010;-81
2022/10/26 00:52:24;;;;;;;8.43;3.50;;;19.20;78.30;;;;;;7377779;19;20022;-81
2022/10/26 00:54:54;;;;;;;9.90;3.63;;;19.30;78.20;;;;;;7378602;19;20106;-81
2022/10/26 00:57:23;;;;;;;14.95;3.72;;;19.30;78.20;;;;;;7376527;19;20461;-80
2022/10/26 00:59:55;;;;;;;11.63;3.72;;;19.30;78.10;;;;;;7378778;19;20014;-79
2022/10/26 01:02:27;;;;;;;12.93;3.72;;;19.20;78.00;;;;;;7395800;19;20020;-80
2022/10/26 01:04:55;;;;;;;;;;;19.20;78.00;;;;;;7379852;19;20010;-80
2022/10/26 01:07:25;;;;;;;15.18;4.82;;;19.20;78.10;;;;;;7375653;19;20220;-80
2022/10/26 01:09:54;;;;;;;10.55;3.75;;;19.10;77.90;;;;;;7377288;19;20161;-80
2022/10/26 01:12:23;;;;;;;15.55;3.88;;;19.10;78.20;;;;;;7374371;19;20019;-80
2022/10/26 01:14:52;;;;;;;15.70;3.47;;;19.20;78.30;;;;;;7374177;19;20098;-81
2022/10/26 01:17:44;;;;;;;8.57;3.78;;;19.20;78.30;;;;;;7401094;19;20022;-80
2022/10/26 01:20:47;;;;;;;13.00;3.70;;;19.10;78.30;;;;;;7376902;19;20025;-81
2022/10/26 01:23:23;;;;;;;9.23;3.42;;;19.10;78.30;;;;;;7378055;19;20014;-81
2022/10/26 01:26:34;;;;;;;11.02;4.00;;;19.10;78.30;;;;;;7378301;19;20007;-80
2022/10/26 01:29:21;;;;;;;10.87;5.13;;;19.10;78.30;;;;;;7378746;19;20021;-81
2022/10/26 01:31:59;;;;;;;8.13;3.50;;;19.10;78.30;;;;;;7375369;19;20084;-80
2022/10/26 01:34:35;;;;;;;10.20;3.00;;;19.00;78.30;;;;;;7376015;19;20138;-80
2022/10/26 01:37:10;;;;;;;10.20;2.85;;;19.00;78.10;;;;;;7377416;19;20071;-80
2022/10/26 01:39:43;;;;;;;14.63;3.03;;;19.10;78.10;;;;;;7375075;19;20011;-80
2022/10/26 01:42:15;;;;;;;8.10;2.75;;;19.00;78.10;;;;;;7372991;19;20041;-80
2022/10/26 01:44:47;;;;;;;10.35;2.80;;;19.10;78.10;;;;;;7375228;19;20022;-80
2022/10/26 01:47:22;;;;;;;5.13;2.78;;;19.10;78.10;;;;;;7396912;19;20018;-80
2022/10/26 01:49:55;;;;;;;10.07;3.20;;;19.10;78.00;;;;;;7372631;19;20348;-81
2022/10/26 01:52:24;;;;;;;11.57;3.53;;;19.10;77.80;;;;;;7374888;19;20021;-80
2022/10/26 01:54:53;;;;;;;20.40;6.07;;;19.10;77.70;;;;;;7375536;19;20025;-80
2022/10/26 01:57:23;;;;;;;17.50;5.43;;;19.10;77.60;;;;;;7376603;19;20006;-80
2022/10/26 02:00:03;;;;;;;16.05;6.70;;;19.10;77.50;;;;;;7378095;19;20014;-80
2022/10/26 02:02:56;;;;;;;11.75;3.97;;;19.10;77.60;;;;;;7377684;19;20309;-80
2022/10/26 02:05:37;;;;;;;11.45;3.53;;;19.10;77.70;;;;;;7404195;19;20038;-81
2022/10/26 02:08:23;;;;;;;11.52;3.10;;;19.10;77.50;;;;;;7378161;19;20074;-80
2022/10/26 02:10:58;;;;;;;8.80;2.90;;;19.10;77.50;;;;;;7376203;19;20014;-81
2022/10/26 02:13:34;;;;;;;7.75;2.65;;;19.10;77.50;;;;;;7373167;19;20021;-80
2022/10/26 02:16:12;;;;;;;12.18;3.20;;;19.10;77.60;;;;;;7375511;19;20007;-80
2022/10/26 02:18:49;;;;;;;11.15;2.70;;;19.10;77.50;;;;;;7375660;19;20013;-81
2022/10/26 02:21:23;;;;;;;10.48;2.78;;;19.20;77.60;;;;;;7376194;19;20466;-80
2022/10/26 02:23:56;;;;;;;8.88;2.88;;;19.20;77.60;;;;;;7375749;19;20416;-80
2022/10/26 02:26:29;;;;;;;8.70;2.78;;;19.20;77.70;;;;;;7397322;19;20297;-81
2022/10/26 02:29:05;;;;;;;8.23;3.08;;;19.20;77.60;;;;;;7373883;19;20021;-82
2022/10/26 02:31:35;;;;;;;10.75;2.30;;;19.20;77.60;;;;;;7373990;19;20018;-80
2022/10/26 02:34:09;;;;;;;9.88;2.40;;;19.20;77.60;;;;;;7373610;19;20023;-81
2022/10/26 02:36:43;;;;;;;9.45;2.30;;;19.20;77.50;;;;;;7375486;19;20919;-81
2022/10/26 02:39:17;;;;;;;9.23;2.63;;;19.20;77.20;;;;;;7375551;19;20090;-80
2022/10/26 02:41:47;;;;;;;11.00;2.53;;;19.20;77.20;;;;;;7377234;19;20021;-79
2022/10/26 02:44:23;;;;;;;9.80;2.53;;;19.20;76.90;;;;;;7397779;19;20047;-80
2022/10/26 02:46:53;;;;;;;7.28;2.55;;;19.20;76.90;;;;;;7374540;19;20034;-80
2022/10/26 02:49:24;;;;;;;4.25;2.40;;;19.20;77.60;;;;;;7382326;19;20031;-80
2022/10/26 02:51:54;;;;;;;;;;;19.30;76.90;;;;;;7381466;19;20014;-80
2022/10/26 02:54:31;;;;;;;11.65;2.80;;;19.40;76.90;;;;;;7375801;19;19922;-81
2022/10/26 02:57:03;;;;;;;10.13;2.97;;;19.40;76.60;;;;;;7373261;19;20010;-80
2022/10/26 02:59:37;;;;;;;9.60;2.60;;;19.40;76.70;;;;;;7372252;19;20018;-80
2022/10/26 03:02:06;;;;;;;7.43;2.42;;;19.40;76.70;;;;;;7392587;19;20082;-80
2022/10/26 03:04:38;;;;;;;10.43;2.70;;;19.40;76.60;;;;;;7372341;19;20020;-81
2022/10/26 03:07:06;;;;;;;7.97;2.95;;;19.40;76.40;;;;;;7373628;19;20479;-80
2022/10/26 03:09:35;;;;;;;9.45;3.00;;;19.40;76.60;;;;;;7372324;19;20097;-80
2022/10/26 03:12:04;;;;;;;9.55;2.80;;;19.40;76.90;;;;;;7367792;19;20114;-80
2022/10/26 03:14:32;;;;;;;15.93;3.45;;;19.40;76.80;;;;;;7370973;19;20315;-80
2022/10/26 03:17:01;;;;;;;11.77;3.35;;;19.30;76.90;;;;;;7397545;19;20019;-81
2022/10/26 03:19:30;;;;;;;18.65;2.95;;;19.30;76.90;;;;;;7375331;19;20010;-81
2022/10/26 03:22:01;;;;;;;7.65;2.60;;;19.30;77.10;;;;;;7371701;19;20018;-81
2022/10/26 03:24:30;;;;;;;8.18;2.85;;;19.30;77.20;;;;;;7372143;19;20024;-81
2022/10/26 03:26:58;;;;;;;11.30;2.40;;;19.20;78.10;;;;;;7370650;19;20018;-81
2022/10/26 03:29:27;;;;;;;16.55;4.65;;;19.30;77.40;;;;;;7395174;19;20015;-81
2022/10/26 03:31:56;;;;;;;8.68;3.63;;;19.20;77.40;;;;;;7372993;19;20314;-81
2022/10/26 03:34:24;;;;;;;14.32;3.30;;;19.20;77.50;;;;;;7374514;19;20018;-80
2022/10/26 03:36:53;;;;;;;11.98;2.95;;;19.20;77.70;;;;;;7374876;19;20390;-80
2022/10/26 03:39:24;;;;;;;13.85;3.25;;;19.10;77.60;;;;;;7373425;19;20033;-80
2022/10/26 03:41:54;;;;;;;20.30;3.15;;;19.10;77.70;;;;;;7372414;19;20029;-80
2022/10/26 03:44:23;;;;;;;18.88;3.53;;;19.10;77.70;;;;;;7393065;19;20338;-80
2022/10/26 03:46:51;;;;;;;11.25;3.22;;;19.00;77.70;;;;;;7371763;19;20086;-80
2022/10/26 03:49:20;;;;;;;13.45;3.17;;;19.00;77.80;;;;;;7370259;19;20034;-81
2022/10/26 03:51:49;;;;;;;13.40;3.15;;;18.90;77.80;;;;;;7370111;19;20109;-80
2022/10/26 03:54:18;;;;;;;8.95;2.92;;;18.90;77.90;;;;;;7369569;19;20018;-80
2022/10/26 03:56:49;;;;;;;11.00;2.95;;;18.90;77.90;;;;;;7369626;19;20025;-81
2022/10/26 03:59:18;;;;;;;6.88;2.28;;;18.80;78.50;;;;;;7392462;19;20648;-80
2022/10/26 04:01:46;;;;;;;8.45;2.95;;;18.80;77.90;;;;;;7370426;19;20030;-80
2022/10/26 04:04:15;;;;;;;9.18;2.90;;;18.70;77.80;;;;;;7370315;19;20018;-80
2022/10/26 04:06:44;;;;;;;13.57;2.85;;;18.70;78.00;;;;;;7371047;19;20574;-81
2022/10/26 04:09:12;;;;;;;16.27;3.28;;;18.70;78.00;;;;;;7370034;19;20014;-80
2022/10/26 04:11:41;;;;;;;10.13;3.10;;;18.60;78.00;;;;;;7370095;19;20014;-80
2022/10/26 04:14:12;;;;;;;15.80;3.42;;;18.60;77.90;;;;;;7391379;19;20788;-81
2022/10/26 04:16:41;;;;;;;10.65;3.08;;;18.60;77.90;;;;;;7370737;19;20029;-80
2022/10/26 04:19:10;;;;;;;7.75;3.25;;;18.60;77.80;;;;;;7373370;19;20021;-80
2022/10/26 04:21:38;;;;;;;10.10;2.97;;;18.60;77.70;;;;;;7381005;19;20093;-80
2022/10/26 04:24:08;;;;;;;5.57;2.85;;;18.60;77.90;;;;;;7373995;19;20086;-80
2022/10/26 04:26:36;;;;;;;5.85;3.08;;;18.60;77.80;;;;;;7371722;19;20085;-80
2022/10/26 04:29:06;;;;;;;6.60;2.75;;;18.60;77.80;;;;;;7390279;19;20126;-80
2022/10/26 04:31:37;;;;;;;17.20;3.17;;;18.60;77.70;;;;;;7371075;19;20426;-80
2022/10/26 04:34:06;;;;;;;9.45;2.70;;;18.50;77.60;;;;;;7371494;19;20313;-81
2022/10/26 04:36:35;;;;;;;4.75;2.40;;;18.50;77.60;;;;;;7370421;19;20014;-81
2022/10/26 04:39:04;;;;;;;10.43;2.75;;;18.50;77.60;;;;;;7371244;19;20306;-81
2022/10/26 04:41:33;;;;;;;6.22;2.42;;;18.50;77.70;;;;;;7370646;19;20058;-84
2022/10/26 04:44:01;;;;;;;6.50;2.53;;;18.50;77.90;;;;;;7394257;19;20019;-86
2022/10/26 04:46:30;;;;;;;6.05;2.40;;;18.50;77.90;;;;;;7373326;19;20577;-85
2022/10/26 04:49:01;;;;;;;6.78;2.15;;;18.60;77.90;;;;;;7382337;19;20014;-83
2022/10/26 04:51:30;;;;;;;5.55;2.58;;;18.60;78.00;;;;;;7393520;19;20279;-82
2022/10/26 04:54:02;;;;;;;16.92;3.20;;;18.60;77.70;;;;;;7374921;19;20098;-82
2022/10/26 04:56:31;;;;;;;6.10;2.10;;;18.60;77.70;;;;;;7371417;19;20026;-83
2022/10/26 04:59:00;;;;;;;7.65;2.83;;;18.60;77.60;;;;;;7391570;19;20018;-83
2022/10/26 05:01:28;;;;;;;8.48;2.53;;;18.60;77.50;;;;;;7370581;19;20072;-83
2022/10/26 05:03:57;;;;;;;13.50;2.80;;;18.60;78.10;;;;;;7369937;19;20010;-82
2022/10/26 05:06:29;;;;;;;13.43;2.53;;;18.70;77.30;;;;;;7371086;19;20078;-79
2022/10/26 05:08:57;;;;;;;12.32;2.88;;;18.60;77.00;;;;;;7368756;19;20109;-79
2022/10/26 05:11:26;;;;;;;9.85;2.38;;;18.60;76.90;;;;;;7390256;19;20023;-79
2022/10/26 05:13:55;;;;;;;5.65;2.13;;;18.60;76.90;;;;;;7361316;19;20021;-79
2022/10/26 05:16:23;;;;;;;16.17;2.90;;;18.60;77.00;;;;;;7361132;19;20023;-80
2022/10/26 05:18:52;;;;;;;7.40;2.70;;;18.60;77.00;;;;;;7366094;19;20124;-80
2022/10/26 05:21:21;;;;;;;12.05;3.13;;;18.60;76.80;;;;;;7368698;19;20447;-80
2022/10/26 05:23:55;;;;;;;15.35;3.05;;;18.60;76.70;;;;;;7370000;19;20075;-79
2022/10/26 05:26:24;;;;;;;10.32;2.50;;;18.60;76.90;;;;;;7401394;19;20023;-79
2022/10/26 05:28:53;;;;;;;15.57;2.95;;;18.60;76.90;;;;;;7376838;19;20037;-80
2022/10/26 05:31:23;;;;;;;13.07;3.13;;;18.50;76.90;;;;;;7377499;19;20022;-80
2022/10/26 05:33:52;;;;;;;12.05;3.20;;;18.50;76.90;;;;;;7377378;19;20106;-83
2022/10/26 05:36:20;;;;;;;6.32;2.90;;;18.50;76.80;;;;;;7380660;19;20031;-87
2022/10/26 05:38:49;;;;;;;10.30;3.00;;;18.50;76.80;;;;;;7383540;19;20079;-87
2022/10/26 05:41:21;;;;;;;6.80;2.55;;;18.50;76.80;;;;;;7405365;19;20090;-87
2022/10/26 05:43:49;;;;;;;15.45;3.08;;;18.40;76.90;;;;;;7382497;19;20039;-87
2022/10/26 05:46:18;;;;;;;9.57;2.97;;;18.40;77.00;;;;;;7381607;19;20074;-87
2022/10/26 05:48:47;;;;;;;10.20;2.97;;;18.40;77.00;;;;;;7382568;19;20089;-87
2022/10/26 05:51:15;;;;;;;8.30;2.60;;;18.40;77.00;;;;;;7385407;19;20097;-87
2022/10/26 05:53:44;;;;;;;10.98;3.53;;;18.40;77.00;;;;;;7390141;19;20018;-86
2022/10/26 05:56:33;;;;;;;10.13;2.95;;;18.40;77.00;;;;;;7409803;19;20026;-86
2022/10/26 05:59:02;;;;;;;8.93;3.15;;;18.30;77.70;;;;;;7382678;19;20433;-86
2022/10/26 06:01:40;;;;;;;17.15;3.90;;;18.30;76.90;;;;;;7384538;19;20098;-86
2022/10/26 06:04:19;;;;;;;17.40;3.90;;;18.30;76.90;;;;;;7392453;19;20441;-86
2022/10/26 06:06:53;;;;;;;14.70;3.63;;;18.30;76.80;;;;;;7387443;19;20094;-86
2022/10/26 06:09:22;;;;;;;18.38;3.75;;;18.30;76.80;;;;;;7376152;19;20019;-86
2022/10/26 06:11:55;;;;;;;10.95;3.38;;;18.30;77.00;;;;;;7376355;19;20032;-86
2022/10/26 06:14:24;;;;;;;12.30;3.03;;;18.20;76.90;;;;;;7413994;19;20116;-87
2022/10/26 06:17:06;;;;;;;14.52;3.50;;;18.20;77.00;;;;;;7398316;19;20018;-86
2022/10/26 06:19:48;;;;;;;9.48;3.05;;;18.10;77.10;;;;;;7385626;19;20107;-87
2022/10/26 06:22:29;;;;;;;18.35;3.50;;;18.10;77.10;;;;;;7380441;19;20025;-87
2022/10/26 06:25:11;;;;;;;21.98;3.70;;;18.10;76.80;;;;;;7379117;19;20054;-86
2022/10/26 06:27:50;;;;;;;15.88;3.35;;;18.10;76.90;;;;;;7377595;19;20089;-87
2022/10/26 06:30:22;;;;;;;10.73;3.08;;;18.00;76.60;;;;;;7374662;19;20039;-87
2022/10/26 06:32:55;;;;;;;9.98;3.45;;;18.10;76.90;;;;;;7374413;19;20062;-85
2022/10/26 06:35:31;;;;;;;15.32;3.70;;;18.00;76.80;;;;;;7394729;19;20025;-85
2022/10/26 06:38:04;;;;;;;11.68;3.78;;;18.00;77.10;;;;;;7377305;19;20101;-86
2022/10/26 06:40:36;;;;;;;10.13;3.13;;;17.80;78.70;;;;;;7379726;19;20078;-87
2022/10/26 06:43:13;;;;;;;7.47;2.83;;;17.90;78.40;;;;;;7388290;19;20399;-86
2022/10/26 06:45:46;;;;;;;13.65;3.42;;;18.00;78.20;;;;;;7385523;19;20026;-87
2022/10/26 06:48:21;;;;;;;9.93;3.28;;;18.00;77.80;;;;;;7373404;19;20023;-86
2022/10/26 06:50:54;;;;;;;14.05;3.40;;;18.00;77.80;;;;;;7376422;19;20007;-86
2022/10/26 06:53:29;;;;;;;9.60;3.33;;;18.10;77.70;;;;;;7399548;19;20456;-87
2022/10/26 06:56:00;;;;;;;11.73;4.18;;;18.10;77.50;;;;;;7374884;19;20014;-87
2022/10/26 06:58:34;;;;;;;;;;;18.20;77.20;;;;;;7376270;19;20050;-88
2022/10/26 07:01:03;;;;;;;14.45;4.07;;;18.20;76.90;;;;;;7374353;19;19927;-88
2022/10/26 07:03:32;;;;;;;13.52;4.00;;;18.20;76.50;;;;;;7374163;19;20578;-87
2022/10/26 07:06:01;;;;;;;10.32;3.05;;;18.10;76.60;;;;;;7373009;19;20011;-88
2022/10/26 07:08:29;;;;;;;9.80;3.20;;;18.10;76.90;;;;;;7377328;19;20063;-86
2022/10/26 07:10:58;;;;;;;12.80;3.17;;;18.10;77.20;;;;;;7395626;19;20435;-87
2022/10/26 07:13:27;;;;;;;17.02;2.92;;;18.20;77.50;;;;;;7373878;19;20054;-87
2022/10/26 07:15:58;;;;;;;12.10;2.92;;;18.20;77.90;;;;;;7374057;19;20386;-87
2022/10/26 07:18:27;;;;;;;15.18;3.03;;;18.20;78.30;;;;;;7373613;19;20018;-86
2022/10/26 07:20:55;;;;;;;18.15;3.33;;;18.20;78.10;;;;;;7374153;19;20018;-86
2022/10/26 07:23:24;;;;;;;10.32;3.13;;;18.30;78.20;;;;;;7396869;19;20329;-87
2022/10/26 07:25:53;;;;;;;10.95;3.20;;;18.40;78.30;;;;;;7373780;19;20014;-86
2022/10/26 07:28:21;;;;;;;12.80;3.00;;;18.40;78.20;;;;;;7379660;19;20015;-87
2022/10/26 07:30:50;;;;;;;19.08;3.00;;;18.50;77.90;;;;;;7382851;19;20090;-87
2022/10/26 07:33:21;;;;;;;12.43;3.58;;;18.50;78.10;;;;;;7378159;19;20010;-87
2022/10/26 07:35:51;;;;;;;10.48;2.40;;;18.40;78.60;;;;;;7376380;19;20061;-87
2022/10/26 07:38:20;;;;;;;12.82;2.85;;;18.40;78.80;;;;;;7395842;19;20018;-87
2022/10/26 07:40:49;;;;;;;7.50;2.70;;;18.50;78.80;;;;;;7374446;19;20021;-86
2022/10/26 07:43:18;;;;;;;13.02;2.55;;;18.50;78.90;;;;;;7373450;19;20315;-87
2022/10/26 07:45:46;;;;;;;10.93;2.67;;;18.30;79.10;;;;;;7375047;19;20010;-87
2022/10/26 07:48:15;;;;;;;11.45;2.30;;;18.40;79.20;;;;;;7372206;19;20014;-87
2022/10/26 07:50:46;;;;;;;15.45;2.65;;;18.40;79.00;;;;;;7372597;19;20102;-85
2022/10/26 07:53:15;;;;;;;9.75;2.30;;;18.20;79.70;;;;;;7392722;19;20032;-85
2022/10/26 07:55:44;;;;;;;10.65;2.35;;;18.40;79.20;;;;;;7372466;19;20090;-86
2022/10/26 07:58:12;;;;;;;16.27;3.15;;;18.50;78.80;;;;;;7373390;19;20024;-86
2022/10/26 08:00:41;;;;;;;10.75;2.97;;;18.60;78.60;;;;;;7373595;19;20070;-86
2022/10/26 08:03:10;;;;;;;13.85;2.42;;;18.60;78.20;;;;;;7373717;19;20018;-87
2022/10/26 08:05:39;;;;;;;14.98;2.75;;;18.70;78.20;;;;;;7372450;19;20658;-87
2022/10/26 08:08:10;;;;;;;12.70;2.53;;;18.70;77.90;;;;;;7394546;19;20328;-87
2022/10/26 08:10:38;;;;;;;;;;;18.60;78.20;;;;;;7379784;19;20011;-87
2022/10/26 08:13:07;;;;;;;10.68;2.80;;;18.80;78.20;;;;;;7378248;19;20307;-87
2022/10/26 08:15:36;;;;;;;15.13;2.97;;;18.80;77.60;;;;;;7384170;19;20193;-87
2022/10/26 08:18:05;;;;;;;11.45;4.25;;;18.80;77.60;;;;;;7378850;19;20347;-86
2022/10/26 08:20:34;;;;;;;14.05;2.60;;;18.90;77.60;;;;;;7376839;19;20035;-85
2022/10/26 08:23:05;;;;;;;14.38;2.55;;;18.90;77.50;;;;;;7396792;19;20117;-87
2022/10/26 08:25:36;;;;;;;15.48;2.95;;;19.00;77.40;;;;;;7373999;19;20038;-87
2022/10/26 08:28:06;;;;;;;13.05;3.13;;;19.00;77.40;;;;;;7372689;19;20140;-87
2022/10/26 08:30:35;;;;;;;10.93;2.30;;;19.00;77.20;;;;;;7374360;19;20023;-86
2022/10/26 08:33:06;;;;;;;13.25;2.55;;;18.90;77.50;;;;;;7373778;19;20094;-85
2022/10/26 08:35:36;;;;;;;16.13;2.65;;;18.90;77.80;;;;;;7374469;19;20019;-87
2022/10/26 08:38:04;;;;;;;10.65;2.55;;;19.00;77.60;;;;;;7397769;19;20014;-86
2022/10/26 08:40:39;;;;;;;12.38;2.60;;;19.10;77.40;;;;;;7375084;19;20021;-87
2022/10/26 08:43:18;;;;;;;17.52;2.90;;;19.10;77.20;;;;;;7374588;19;20433;-87
2022/10/26 08:45:52;;;;;;;14.95;2.80;;;19.20;77.20;;;;;;7373613;19;20341;-86
2022/10/26 08:48:24;;;;;;;18.80;2.72;;;19.30;77.80;;;;;;7371846;19;20021;-86
2022/10/26 08:50:56;;;;;;;9.02;2.05;;;19.40;76.80;;;;;;7372890;19;20046;-85
2022/10/26 08:53:31;;;;;;;25.73;3.45;;;19.40;76.50;;;;;;7394122;19;20438;-86
2022/10/26 08:56:08;;;;;;;18.95;2.58;;;19.40;76.70;;;;;;7370357;19;20021;-86
2022/10/26 08:58:48;;;;;;;12.52;2.28;;;19.40;76.60;;;;;;7375457;19;20025;-86
2022/10/26 09:01:21;;;;;;;10.68;2.50;;;19.40;76.80;;;;;;7386250;19;20026;-85
2022/10/26 09:03:49;;;;;;;13.20;2.67;;;19.30;76.80;;;;;;7389699;19;20007;-86
2022/10/26 09:06:37;;;;;;;14.93;2.80;;;19.40;76.80;;;;;;7392184;19;20018;-86
2022/10/26 09:09:11;;;;;;;14.77;2.17;;;19.50;76.80;;;;;;7405742;19;20624;-87
2022/10/26 09:11:55;;;;;;;13.32;2.17;;;19.60;76.40;;;;;;7393412;19;20040;-86
2022/10/26 09:14:37;;;;;;;12.38;2.60;;;19.60;76.30;;;;;;7426242;19;20006;-87
2022/10/26 09:17:13;;;;;;;12.23;2.30;;;19.60;76.00;;;;;;7405472;19;20015;-86
2022/10/26 09:20:04;;;;;;;10.05;1.90;;;19.70;76.00;;;;;;7412797;19;20007;-87
2022/10/26 09:22:40;;;;;;;8.73;2.25;;;19.60;76.10;;;;;;7392014;19;20022;-86
2022/10/26 09:25:19;;;;;;;8.43;1.83;;;19.70;76.00;;;;;;7392996;19;20003;-86
2022/10/26 09:27:55;;;;;;;12.15;2.28;;;19.70;76.00;;;;;;7389692;19;20014;-86
2022/10/26 09:30:24;;;;;;;11.45;2.45;;;19.80;75.90;;;;;;7382790;19;20489;-85
2022/10/26 09:32:57;;;;;;;9.38;2.15;;;19.90;75.70;;;;;;7393631;19;20014;-86
2022/10/26 09:35:29;;;;;;;13.07;2.00;;;19.90;75.60;;;;;;7416511;19;20032;-86
2022/10/26 09:38:05;;;;;;;8.13;1.70;;;20.00;75.40;;;;;;7389314;19;20090;-86
2022/10/26 09:40:42;;;;;;;11.55;1.90;;;20.00;75.10;;;;;;7385445;19;20006;-86
2022/10/26 09:43:18;;;;;;;11.38;2.22;;;19.90;75.20;;;;;;7387106;19;20506;-86
2022/10/26 09:45:51;;;;;;;13.43;1.90;;;19.90;75.20;;;;;;7387899;19;20031;-86
2022/10/26 09:48:27;;;;;;;15.73;1.95;;;19.90;75.40;;;;;;7388849;19;20015;-87
2022/10/26 09:50:56;;;;;;;8.30;1.90;;;19.80;75.10;;;;;;7386261;19;20383;-85
2022/10/26 09:53:25;;;;;;;9.60;1.73;;;19.90;75.20;;;;;;7409406;19;20025;-85
2022/10/26 09:56:02;;;;;;;8.88;1.83;;;19.90;74.50;;;;;;7385655;19;20015;-84
2022/10/26 09:58:38;;;;;;;11.88;2.00;;;19.90;74.80;;;;;;7382997;19;20025;-85
2022/10/26 10:01:07;;;;;;;8.88;1.58;;;19.90;75.00;;;;;;7378326;19;20014;-85
2022/10/26 10:03:36;;;;;;;11.35;2.00;;;19.90;75.10;;;;;;7377642;19;20042;-85
2022/10/26 10:06:18;;;;;;;9.25;1.60;;;19.60;76.00;;;;;;7376633;19;20031;-85
2022/10/26 10:09:09;;;;;;;10.13;1.98;;;19.80;75.70;;;;;;7375384;19;20024;-85
2022/10/26 10:11:42;;;;;;;12.07;1.70;;;19.90;75.50;;;;;;7377128;19;20022;-84
2022/10/26 10:14:18;;;;;;;7.55;1.98;;;19.70;76.00;;;;;;7397668;19;20090;-85
2022/10/26 10:16:58;;;;;;;10.02;1.85;;;19.70;76.20;;;;;;7376490;19;20014;-85
2022/10/26 10:19:29;;;;;;;8.10;1.90;;;19.70;76.40;;;;;;7376402;19;20324;-85
2022/10/26 10:22:00;;;;;;;10.18;2.22;;;19.60;76.40;;;;;;7374913;19;20007;-86
2022/10/26 10:24:31;;;;;;;11.18;2.05;;;19.80;76.10;;;;;;7376106;19;20014;-85
2022/10/26 10:27:04;;;;;;;11.90;2.00;;;19.90;75.40;;;;;;7376513;19;20013;-85
2022/10/26 10:29:41;;;;;;;8.20;2.00;;;20.00;75.40;;;;;;7377206;19;20082;-84
2022/10/26 10:32:16;;;;;;;7.05;2.03;;;20.10;75.30;;;;;;7401778;19;20029;-85
2022/10/26 10:34:46;;;;;;;11.35;2.17;;;20.10;75.10;;;;;;7383241;19;20022;-85
2022/10/26 10:37:26;;;;;;;7.32;2.03;;;20.20;75.00;;;;;;7385030;19;20018;-86
2022/10/26 10:40:00;;;;;;;11.43;1.95;;;20.30;74.90;;;;;;7379701;19;20077;-85
2022/10/26 10:42:32;;;;;;;11.18;1.85;;;20.30;74.30;;;;;;7378023;19;20018;-85
2022/10/26 10:45:05;;;;;;;12.50;2.10;;;20.30;74.40;;;;;;7375996;19;20103;-86
2022/10/26 10:47:36;;;;;;;11.95;2.22;;;20.30;74.70;;;;;;7379156;19;20030;-85
2022/10/26 10:50:09;;;;;;;8.00;1.63;;;20.30;74.80;;;;;;7395228;19;20031;-86
2022/10/26 10:52:38;;;;;;;12.93;2.25;;;20.30;75.00;;;;;;7376028;19;20286;-85
2022/10/26 10:55:21;;;;;;;8.02;1.73;;;20.20;74.90;;;;;;7372815;19;20022;-86
2022/10/26 10:58:06;;;;;;;8.95;1.83;;;20.20;74.70;;;;;;7375385;19;20082;-86
2022/10/26 11:00:39;;;;;;;8.75;1.58;;;20.30;74.50;;;;;;7375784;19;20035;-86
2022/10/26 11:03:22;;;;;;;12.90;1.98;;;20.30;74.50;;;;;;7373930;19;20353;-86
2022/10/26 11:06:05;;;;;;;8.50;1.75;;;20.40;74.60;;;;;;7375944;19;20026;-86
2022/10/26 11:08:39;;;;;;;6.15;1.83;;;20.50;74.40;;;;;;7375348;19;20118;-85
2022/10/26 11:11:14;;;;;;;10.48;1.90;;;20.60;74.10;;;;;;7396876;19;20054;-87
2022/10/26 11:13:52;;;;;;;6.82;1.60;;;20.70;73.80;;;;;;7376715;19;20034;-86
2022/10/26 11:16:30;;;;;;;10.65;2.38;;;20.70;73.70;;;;;;7380892;19;20054;-86
2022/10/26 11:19:02;;;;;;;9.35;1.85;;;20.80;73.70;;;;;;7385224;19;20094;-86
2022/10/26 11:21:32;;;;;;;10.80;1.77;;;20.80;73.50;;;;;;7383630;19;20014;-86
2022/10/26 11:24:10;;;;;;;8.25;2.25;;;20.90;73.50;;;;;;7379645;19;20090;-86
2022/10/26 11:26:44;;;;;;;12.88;2.05;;;20.80;73.60;;;;;;7373512;19;20085;-87
2022/10/26 11:29:23;;;;;;;11.10;2.05;;;20.90;73.70;;;;;;7395101;19;20089;-87
2022/10/26 11:32:01;;;;;;;13.30;2.13;;;20.90;74.30;;;;;;7375234;19;20019;-87
2022/10/26 11:34:36;;;;;;;7.95;1.90;;;20.90;74.20;;;;;;7376636;19;20090;-87
2022/10/26 11:37:12;;;;;;;5.15;1.80;;;21.00;73.70;;;;;;7375682;19;20010;-87
2022/10/26 11:39:47;;;;;;;6.03;1.88;;;21.10;73.40;;;;;;7373122;19;20015;-85
2022/10/26 11:42:33;;;;;;;8.65;1.98;;;21.10;73.40;;;;;;7374998;19;20045;-86
2022/10/26 11:45:10;;;;;;;8.90;2.13;;;21.10;74.00;;;;;;7375859;19;20116;-86
2022/10/26 11:47:48;;;;;;;12.57;1.90;;;21.20;73.60;;;;;;7376026;19;20022;-86
2022/10/26 11:50:23;;;;;;;9.32;1.98;;;21.30;73.30;;;;;;7394242;19;20558;-86
2022/10/26 11:52:56;;;;;;;10.80;1.85;;;21.20;72.90;;;;;;7372883;19;20014;-87
2022/10/26 11:55:28;;;;;;;11.05;1.80;;;21.40;72.70;;;;;;7372401;19;20375;-86
2022/10/26 11:57:56;;;;;;;7.75;1.77;;;21.50;72.30;;;;;;7372903;19;20086;-86
2022/10/26 12:00:25;;;;;;;8.57;1.55;;;21.60;71.70;;;;;;7377548;19;20038;-86
2022/10/26 12:03:02;;;;;;;11.60;1.83;;;21.70;71.60;;;;;;7378195;19;20433;-86
2022/10/26 12:05:43;;;;;;;9.93;1.75;;;21.80;70.90;;;;;;7383980;19;20386;-86
2022/10/26 12:08:17;;;;;;;6.47;1.63;;;21.70;70.80;;;;;;7404326;19;20110;-87
2022/10/26 12:10:54;;;;;;;8.48;1.40;;;21.90;70.70;;;;;;7378484;19;20015;-86
2022/10/26 12:13:30;;;;;;;7.57;1.40;;;22.00;69.50;;;;;;7375211;19;20082;-85
2022/10/26 12:16:05;;;;;;;11.60;1.52;;;22.10;69.40;;;;;;7373738;19;20081;-86
2022/10/26 12:18:46;;;;;;;11.55;1.50;;;21.90;69.80;;;;;;7372798;19;20019;-85
2022/10/26 12:21:16;;;;;;;7.43;1.60;;;21.90;70.20;;;;;;7375434;19;20025;-86
2022/10/26 12:23:57;;;;;;;10.10;1.50;;;22.00;69.10;;;;;;7373008;19;20364;-86
2022/10/26 12:26:53;;;;;;;6.18;1.73;;;22.10;69.00;;;;;;7397557;19;20086;-86
2022/10/26 12:29:52;;;;;;;5.75;1.80;;;21.90;68.80;;;;;;7374546;19;20028;-86
2022/10/26 12:32:52;;;;;;;8.63;1.67;;;21.80;69.80;;;;;;7378647;19;20018;-86
2022/10/26 12:35:47;;;;;;;7.28;1.58;;;21.80;69.70;;;;;;7381395;19;20344;-86
2022/10/26 12:38:59;;;;;;;11.65;2.33;;;22.10;69.10;;;;;;7381561;19;20031;-86
2022/10/26 12:41:29;;;;;;;7.93;1.75;;;22.00;69.40;;;;;;7277903;19;2004744;-86
2022/10/26 12:44:06;;;;;;;9.77;1.63;;;22.10;68.90;;;;;;7405731;19;20019;-86
2022/10/26 12:46:44;;;;;;;6.28;1.60;;;22.10;69.30;;;;;;7380580;19;20014;-87
2022/10/26 12:49:56;;;;;;;9.65;1.77;;;22.20;68.70;;;;;;7386459;19;20018;-87
2022/10/26 12:52:47;;;;;;;4.60;1.60;;;22.20;68.30;;;;;;7391677;19;20015;-87
2022/10/26 12:55:31;;;;;;;;;;;22.40;68.10;;;;;;7387315;19;20027;-87
2022/10/26 12:58:29;;;;;;;9.13;1.63;;;22.60;67.70;;;;;;7383169;19;19923;-88
2022/10/26 13:01:23;;;;;;;8.10;1.70;;;22.50;66.70;;;;;;7384516;19;20563;-87
2022/10/26 13:04:06;;;;;;;17.15;1.60;;;22.80;66.80;;;;;;7383994;19;20018;-86
2022/10/26 13:06:57;;;;;;;9.48;1.52;;;22.80;66.90;;;;;;7382425;19;20011;-86
2022/10/26 13:09:31;;;;;;;;;;;22.90;66.90;;;;;;7384134;19;20046;-86
2022/10/26 13:12:04;;;;;;;7.25;1.40;;;23.10;66.60;;;;;;7381882;19;19918;-87
2022/10/26 13:14:37;;;;;;;9.15;1.60;;;23.10;65.20;;;;;;7381358;19;20031;-86
2022/10/26 13:17:11;;;;;;;10.80;1.88;;;23.00;65.20;;;;;;7405218;19;20015;-86